sensor_id;sensor_type;location;lat;lon;timestamp;P1;P2;P0
47810;PMS5003;33575;52.600;7.318;2023-07-24T00:01:58;6;5;
47810;PMS5003;33575;52.600;7.318;2023-07-24T00:04:29;5;5;
47810;PMS5003;33575;52.600;7.318;2023-07-24T00:06:59;4;4;
47810;PMS5003;33575;52.600;7.318;2023-07-24T00:09:29;3;3;
47810;PMS5003;33575;52.600;7.318;2023-07-24T00:11:59;4;4;
47810;PMS5003;33575;52.600;7.318;2023-07-24T00:14:30;4;3;
47810;PMS5003;33575;52.600;7.318;2023-07-24T00:17:00;5;4;
47810;PMS5003;33575;52.600;7.318;2023-07-24T00:19:30;6;5;
47810;PMS5003;33575;52.600;7.318;2023-07-24T00:22:01;5;3;
47810;PMS5003;33575;52.600;7.318;2023-07-24T00:24:31;5;4;
47810;PMS5003;33575;52.600;7.318;2023-07-24T00:27:01;7;6;
47810;PMS5003;33575;52.600;7.318;2023-07-24T00:29:32;7;6;
47810;PMS5003;33575;52.600;7.318;2023-07-24T00:32:02;6;6;
47810;PMS5003;33575;52.600;7.318;2023-07-24T00:34:32;5;5;
47810;PMS5003;33575;52.600;7.318;2023-07-24T00:37:02;5;5;
47810;PMS5003;33575;52.600;7.318;2023-07-24T00:39:33;3;3;
47810;PMS5003;33575;52.600;7.318;2023-07-24T00:42:04;4;4;
47810;PMS5003;33575;52.600;7.318;2023-07-24T00:44:34;5;4;
47810;PMS5003;33575;52.600;7.318;2023-07-24T00:47:04;5;5;
47810;PMS5003;33575;52.600;7.318;2023-07-24T00:49:34;5;5;
47810;PMS5003;33575;52.600;7.318;2023-07-24T00:52:05;6;6;
47810;PMS5003;33575;52.600;7.318;2023-07-24T00:54:35;4;4;
47810;PMS5003;33575;52.600;7.318;2023-07-24T00:57:06;3;3;
47810;PMS5003;33575;52.600;7.318;2023-07-24T00:59:36;4;4;
47810;PMS5003;33575;52.600;7.318;2023-07-24T01:02:06;7;6;
47810;PMS5003;33575;52.600;7.318;2023-07-24T01:04:36;3;3;
47810;PMS5003;33575;52.600;7.318;2023-07-24T01:07:06;4;3;
47810;PMS5003;33575;52.600;7.318;2023-07-24T01:09:37;4;4;
47810;PMS5003;33575;52.600;7.318;2023-07-24T01:12:08;4;4;
47810;PMS5003;33575;52.600;7.318;2023-07-24T01:14:40;3;3;
47810;PMS5003;33575;52.600;7.318;2023-07-24T01:17:08;5;4;
47810;PMS5003;33575;52.600;7.318;2023-07-24T01:19:40;3;3;
47810;PMS5003;33575;52.600;7.318;2023-07-24T01:22:10;4;4;
47810;PMS5003;33575;52.600;7.318;2023-07-24T01:24:43;6;6;
47810;PMS5003;33575;52.600;7.318;2023-07-24T01:27:09;7;5;
47810;PMS5003;33575;52.600;7.318;2023-07-24T01:29:39;3;3;
47810;PMS5003;33575;52.600;7.318;2023-07-24T01:32:09;5;5;
47810;PMS5003;33575;52.600;7.318;2023-07-24T01:34:39;5;4;
47810;PMS5003;33575;52.600;7.318;2023-07-24T01:37:10;6;6;
47810;PMS5003;33575;52.600;7.318;2023-07-24T01:39:40;5;4;
47810;PMS5003;33575;52.600;7.318;2023-07-24T01:42:10;4;4;
47810;PMS5003;33575;52.600;7.318;2023-07-24T01:44:40;3;3;
47810;PMS5003;33575;52.600;7.318;2023-07-24T01:47:11;3;3;
47810;PMS5003;33575;52.600;7.318;2023-07-24T01:49:41;3;3;
47810;PMS5003;33575;52.600;7.318;2023-07-24T01:52:11;5;5;
47810;PMS5003;33575;52.600;7.318;2023-07-24T01:54:42;2;2;
47810;PMS5003;33575;52.600;7.318;2023-07-24T01:57:12;6;4;
47810;PMS5003;33575;52.600;7.318;2023-07-24T01:59:42;4;4;
47810;PMS5003;33575;52.600;7.318;2023-07-24T02:02:12;2;2;
47810;PMS5003;33575;52.600;7.318;2023-07-24T02:04:43;4;3;
47810;PMS5003;33575;52.600;7.318;2023-07-24T02:07:13;4;3;
47810;PMS5003;33575;52.600;7.318;2023-07-24T02:09:43;2;2;
47810;PMS5003;33575;52.600;7.318;2023-07-24T02:12:13;2;2;
47810;PMS5003;33575;52.600;7.318;2023-07-24T02:14:44;4;3;
47810;PMS5003;33575;52.600;7.318;2023-07-24T02:17:14;2;2;
47810;PMS5003;33575;52.600;7.318;2023-07-24T02:19:44;3;3;
47810;PMS5003;33575;52.600;7.318;2023-07-24T02:22:15;1;1;
47810;PMS5003;33575;52.600;7.318;2023-07-24T02:24:45;4;3;
47810;PMS5003;33575;52.600;7.318;2023-07-24T02:29:46;4;4;
47810;PMS5003;33575;52.600;7.318;2023-07-24T02:32:16;3;3;
47810;PMS5003;33575;52.600;7.318;2023-07-24T02:34:47;4;4;
47810;PMS5003;33575;52.600;7.318;2023-07-24T02:37:17;3;3;
47810;PMS5003;33575;52.600;7.318;2023-07-24T02:39:47;5;4;
47810;PMS5003;33575;52.600;7.318;2023-07-24T02:42:18;5;5;
47810;PMS5003;33575;52.600;7.318;2023-07-24T02:44:48;5;4;
47810;PMS5003;33575;52.600;7.318;2023-07-24T02:47:18;3;3;
47810;PMS5003;33575;52.600;7.318;2023-07-24T02:49:48;2;2;
47810;PMS5003;33575;52.600;7.318;2023-07-24T02:52:18;5;5;
47810;PMS5003;33575;52.600;7.318;2023-07-24T02:54:49;4;4;
47810;PMS5003;33575;52.600;7.318;2023-07-24T02:57:19;3;3;
47810;PMS5003;33575;52.600;7.318;2023-07-24T02:59:49;5;5;
47810;PMS5003;33575;52.600;7.318;2023-07-24T03:02:19;3;3;
47810;PMS5003;33575;52.600;7.318;2023-07-24T03:04:50;3;3;
47810;PMS5003;33575;52.600;7.318;2023-07-24T03:07:20;6;6;
47810;PMS5003;33575;52.600;7.318;2023-07-24T03:09:50;5;5;
47810;PMS5003;33575;52.600;7.318;2023-07-24T03:12:20;6;6;
47810;PMS5003;33575;52.600;7.318;2023-07-24T03:14:51;5;5;
47810;PMS5003;33575;52.600;7.318;2023-07-24T03:17:22;5;5;
47810;PMS5003;33575;52.600;7.318;2023-07-24T03:19:53;4;4;
47810;PMS5003;33575;52.600;7.318;2023-07-24T03:22:22;6;6;
47810;PMS5003;33575;52.600;7.318;2023-07-24T03:24:52;7;6;
47810;PMS5003;33575;52.600;7.318;2023-07-24T03:27:22;5;5;
47810;PMS5003;33575;52.600;7.318;2023-07-24T03:29:52;5;5;
47810;PMS5003;33575;52.600;7.318;2023-07-24T03:32:23;6;6;
47810;PMS5003;33575;52.600;7.318;2023-07-24T03:34:53;4;4;
47810;PMS5003;33575;52.600;7.318;2023-07-24T03:37:23;6;6;
47810;PMS5003;33575;52.600;7.318;2023-07-24T03:39:53;6;5;
47810;PMS5003;33575;52.600;7.318;2023-07-24T03:42:24;6;6;
47810;PMS5003;33575;52.600;7.318;2023-07-24T03:44:54;5;5;
47810;PMS5003;33575;52.600;7.318;2023-07-24T03:47:24;5;5;
47810;PMS5003;33575;52.600;7.318;2023-07-24T03:49:55;6;6;
47810;PMS5003;33575;52.600;7.318;2023-07-24T03:52:25;5;4;
47810;PMS5003;33575;52.600;7.318;2023-07-24T03:54:55;7;6;
47810;PMS5003;33575;52.600;7.318;2023-07-24T03:57:25;5;5;
47810;PMS5003;33575;52.600;7.318;2023-07-24T03:59:56;5;5;
47810;PMS5003;33575;52.600;7.318;2023-07-24T04:02:26;6;5;
47810;PMS5003;33575;52.600;7.318;2023-07-24T04:04:56;7;7;
47810;PMS5003;33575;52.600;7.318;2023-07-24T04:07:26;6;6;
47810;PMS5003;33575;52.600;7.318;2023-07-24T04:09:57;6;6;
47810;PMS5003;33575;52.600;7.318;2023-07-24T04:12:28;7;5;
47810;PMS5003;33575;52.600;7.318;2023-07-24T04:14:57;6;5;
47810;PMS5003;33575;52.600;7.318;2023-07-24T04:17:28;6;6;
47810;PMS5003;33575;52.600;7.318;2023-07-24T04:19:58;5;5;
47810;PMS5003;33575;52.600;7.318;2023-07-24T04:22:28;6;6;
47810;PMS5003;33575;52.600;7.318;2023-07-24T04:24:58;6;6;
47810;PMS5003;33575;52.600;7.318;2023-07-24T04:27:28;5;5;
47810;PMS5003;33575;52.600;7.318;2023-07-24T04:29:59;7;6;
47810;PMS5003;33575;52.600;7.318;2023-07-24T04:32:29;7;7;
47810;PMS5003;33575;52.600;7.318;2023-07-24T04:35:00;5;5;
47810;PMS5003;33575;52.600;7.318;2023-07-24T04:37:30;6;6;
47810;PMS5003;33575;52.600;7.318;2023-07-24T04:40:00;6;6;
47810;PMS5003;33575;52.600;7.318;2023-07-24T04:42:31;5;5;
47810;PMS5003;33575;52.600;7.318;2023-07-24T04:45:01;6;5;
47810;PMS5003;33575;52.600;7.318;2023-07-24T04:47:31;7;7;
47810;PMS5003;33575;52.600;7.318;2023-07-24T04:50:01;6;6;
47810;PMS5003;33575;52.600;7.318;2023-07-24T04:52:32;5;5;
47810;PMS5003;33575;52.600;7.318;2023-07-24T04:55:02;8;7;
47810;PMS5003;33575;52.600;7.318;2023-07-24T04:57:32;6;6;
47810;PMS5003;33575;52.600;7.318;2023-07-24T05:00:03;7;7;
47810;PMS5003;33575;52.600;7.318;2023-07-24T05:02:33;8;7;
47810;PMS5003;33575;52.600;7.318;2023-07-24T05:05:03;6;6;
47810;PMS5003;33575;52.600;7.318;2023-07-24T05:07:33;8;8;
47810;PMS5003;33575;52.600;7.318;2023-07-24T05:10:04;6;6;
47810;PMS5003;33575;52.600;7.318;2023-07-24T05:12:34;6;6;
47810;PMS5003;33575;52.600;7.318;2023-07-24T05:15:05;9;9;
47810;PMS5003;33575;52.600;7.318;2023-07-24T05:17:35;6;6;
47810;PMS5003;33575;52.600;7.318;2023-07-24T05:20:06;7;7;
47810;PMS5003;33575;52.600;7.318;2023-07-24T05:22:35;7;7;
47810;PMS5003;33575;52.600;7.318;2023-07-24T05:25:06;8;8;
47810;PMS5003;33575;52.600;7.318;2023-07-24T05:27:36;6;6;
47810;PMS5003;33575;52.600;7.318;2023-07-24T05:30:07;6;6;
47810;PMS5003;33575;52.600;7.318;2023-07-24T05:32:36;5;5;
47810;PMS5003;33575;52.600;7.318;2023-07-24T05:35:07;6;5;
47810;PMS5003;33575;52.600;7.318;2023-07-24T05:37:37;8;7;
47810;PMS5003;33575;52.600;7.318;2023-07-24T05:40:08;6;6;
47810;PMS5003;33575;52.600;7.318;2023-07-24T05:42:38;9;8;
47810;PMS5003;33575;52.600;7.318;2023-07-24T05:45:08;7;7;
47810;PMS5003;33575;52.600;7.318;2023-07-24T05:47:38;7;6;
47810;PMS5003;33575;52.600;7.318;2023-07-24T05:50:09;6;6;
47810;PMS5003;33575;52.600;7.318;2023-07-24T05:52:39;9;8;
47810;PMS5003;33575;52.600;7.318;2023-07-24T05:55:09;7;7;
47810;PMS5003;33575;52.600;7.318;2023-07-24T05:57:39;9;8;
47810;PMS5003;33575;52.600;7.318;2023-07-24T06:00:10;8;8;
47810;PMS5003;33575;52.600;7.318;2023-07-24T06:02:40;7;7;
47810;PMS5003;33575;52.600;7.318;2023-07-24T06:05:10;10;9;
47810;PMS5003;33575;52.600;7.318;2023-07-24T06:07:40;9;9;
47810;PMS5003;33575;52.600;7.318;2023-07-24T06:10:11;9;9;
47810;PMS5003;33575;52.600;7.318;2023-07-24T06:12:41;6;6;
47810;PMS5003;33575;52.600;7.318;2023-07-24T06:15:11;7;7;
47810;PMS5003;33575;52.600;7.318;2023-07-24T06:17:42;9;9;
47810;PMS5003;33575;52.600;7.318;2023-07-24T06:20:12;10;10;
47810;PMS5003;33575;52.600;7.318;2023-07-24T06:22:42;9;9;
47810;PMS5003;33575;52.600;7.318;2023-07-24T06:25:12;6;5;
47810;PMS5003;33575;52.600;7.318;2023-07-24T06:27:43;10;9;
47810;PMS5003;33575;52.600;7.318;2023-07-24T06:30:17;10;8;
47810;PMS5003;33575;52.600;7.318;2023-07-24T06:32:43;10;9;
47810;PMS5003;33575;52.600;7.318;2023-07-24T06:35:14;7;7;
47810;PMS5003;33575;52.600;7.318;2023-07-24T06:37:44;8;8;
47810;PMS5003;33575;52.600;7.318;2023-07-24T06:40:14;7;7;
47810;PMS5003;33575;52.600;7.318;2023-07-24T06:42:44;8;8;
47810;PMS5003;33575;52.600;7.318;2023-07-24T06:45:14;11;10;
47810;PMS5003;33575;52.600;7.318;2023-07-24T06:47:45;8;8;
47810;PMS5003;33575;52.600;7.318;2023-07-24T06:50:15;9;7;
47810;PMS5003;33575;52.600;7.318;2023-07-24T06:52:45;7;7;
47810;PMS5003;33575;52.600;7.318;2023-07-24T06:55:16;9;9;
47810;PMS5003;33575;52.600;7.318;2023-07-24T06:57:46;10;9;
47810;PMS5003;33575;52.600;7.318;2023-07-24T07:00:16;7;6;
47810;PMS5003;33575;52.600;7.318;2023-07-24T07:02:46;12;10;
47810;PMS5003;33575;52.600;7.318;2023-07-24T07:05:16;10;8;
47810;PMS5003;33575;52.600;7.318;2023-07-24T07:07:47;10;10;
47810;PMS5003;33575;52.600;7.318;2023-07-24T07:10:17;11;11;
47810;PMS5003;33575;52.600;7.318;2023-07-24T07:12:47;10;9;
47810;PMS5003;33575;52.600;7.318;2023-07-24T07:15:18;9;8;
47810;PMS5003;33575;52.600;7.318;2023-07-24T07:17:48;10;9;
47810;PMS5003;33575;52.600;7.318;2023-07-24T07:20:18;10;10;
47810;PMS5003;33575;52.600;7.318;2023-07-24T07:22:49;13;12;
47810;PMS5003;33575;52.600;7.318;2023-07-24T07:25:20;8;8;
47810;PMS5003;33575;52.600;7.318;2023-07-24T07:27:50;11;11;
47810;PMS5003;33575;52.600;7.318;2023-07-24T07:30:20;8;8;
47810;PMS5003;33575;52.600;7.318;2023-07-24T07:32:51;12;11;
47810;PMS5003;33575;52.600;7.318;2023-07-24T07:35:21;11;11;
47810;PMS5003;33575;52.600;7.318;2023-07-24T07:37:52;11;11;
47810;PMS5003;33575;52.600;7.318;2023-07-24T07:40:22;13;13;
47810;PMS5003;33575;52.600;7.318;2023-07-24T07:42:52;12;12;
47810;PMS5003;33575;52.600;7.318;2023-07-24T07:45:23;10;10;
47810;PMS5003;33575;52.600;7.318;2023-07-24T07:47:54;11;11;
47810;PMS5003;33575;52.600;7.318;2023-07-24T07:50:25;15;15;
47810;PMS5003;33575;52.600;7.318;2023-07-24T07:52:55;14;14;
47810;PMS5003;33575;52.600;7.318;2023-07-24T07:55:25;12;12;
47810;PMS5003;33575;52.600;7.318;2023-07-24T07:57:56;18;16;
47810;PMS5003;33575;52.600;7.318;2023-07-24T08:00:27;19;18;
47810;PMS5003;33575;52.600;7.318;2023-07-24T08:02:57;19;17;
47810;PMS5003;33575;52.600;7.318;2023-07-24T08:05:28;16;15;
47810;PMS5003;33575;52.600;7.318;2023-07-24T08:07:58;18;16;
47810;PMS5003;33575;52.600;7.318;2023-07-24T08:10:29;17;16;
47810;PMS5003;33575;52.600;7.318;2023-07-24T08:12:59;16;16;
47810;PMS5003;33575;52.600;7.318;2023-07-24T08:15:33;20;19;
47810;PMS5003;33575;52.600;7.318;2023-07-24T08:18:00;17;16;
47810;PMS5003;33575;52.600;7.318;2023-07-24T08:20:30;25;24;
47810;PMS5003;33575;52.600;7.318;2023-07-24T08:23:01;20;19;
47810;PMS5003;33575;52.600;7.318;2023-07-24T08:25:31;18;16;
47810;PMS5003;33575;52.600;7.318;2023-07-24T08:28:06;19;18;
47810;PMS5003;33575;52.600;7.318;2023-07-24T08:30:33;16;16;
47810;PMS5003;33575;52.600;7.318;2023-07-24T08:33:03;16;16;
47810;PMS5003;33575;52.600;7.318;2023-07-24T08:35:34;16;16;
47810;PMS5003;33575;52.600;7.318;2023-07-24T08:38:05;19;18;
47810;PMS5003;33575;52.600;7.318;2023-07-24T08:40:35;15;15;
47810;PMS5003;33575;52.600;7.318;2023-07-24T08:43:06;13;13;
47810;PMS5003;33575;52.600;7.318;2023-07-24T08:45:37;16;16;
47810;PMS5003;33575;52.600;7.318;2023-07-24T08:48:07;18;17;
47810;PMS5003;33575;52.600;7.318;2023-07-24T08:50:38;16;15;
47810;PMS5003;33575;52.600;7.318;2023-07-24T08:53:08;17;14;
47810;PMS5003;33575;52.600;7.318;2023-07-24T08:55:39;16;16;
47810;PMS5003;33575;52.600;7.318;2023-07-24T08:58:10;19;18;
47810;PMS5003;33575;52.600;7.318;2023-07-24T09:00:40;15;14;
47810;PMS5003;33575;52.600;7.318;2023-07-24T09:03:11;18;16;
47810;PMS5003;33575;52.600;7.318;2023-07-24T09:05:41;14;14;
47810;PMS5003;33575;52.600;7.318;2023-07-24T09:08:11;15;15;
47810;PMS5003;33575;52.600;7.318;2023-07-24T09:10:42;11;11;
47810;PMS5003;33575;52.600;7.318;2023-07-24T09:13:13;18;17;
47810;PMS5003;33575;52.600;7.318;2023-07-24T09:15:44;15;15;
47810;PMS5003;33575;52.600;7.318;2023-07-24T09:18:14;13;13;
47810;PMS5003;33575;52.600;7.318;2023-07-24T09:20:44;13;11;
47810;PMS5003;33575;52.600;7.318;2023-07-24T09:25:45;15;14;
47810;PMS5003;33575;52.600;7.318;2023-07-24T09:28:15;12;12;
47810;PMS5003;33575;52.600;7.318;2023-07-24T09:33:16;11;11;
47810;PMS5003;33575;52.600;7.318;2023-07-24T09:38:17;13;13;
47810;PMS5003;33575;52.600;7.318;2023-07-24T09:40:48;20;18;
47810;PMS5003;33575;52.600;7.318;2023-07-24T09:43:22;15;15;
47810;PMS5003;33575;52.600;7.318;2023-07-24T09:45:47;12;12;
47810;PMS5003;33575;52.600;7.318;2023-07-24T09:48:23;14;12;
47810;PMS5003;33575;52.600;7.318;2023-07-24T09:50:48;13;11;
47810;PMS5003;33575;52.600;7.318;2023-07-24T09:53:20;62;62;
47810;PMS5003;33575;52.600;7.318;2023-07-24T09:55:49;29;26;
47810;PMS5003;33575;52.600;7.318;2023-07-24T09:58:18;20;16;
47810;PMS5003;33575;52.600;7.318;2023-07-24T10:00:49;32;32;
47810;PMS5003;33575;52.600;7.318;2023-07-24T10:03:20;12;11;
47810;PMS5003;33575;52.600;7.318;2023-07-24T10:05:49;16;14;
47810;PMS5003;33575;52.600;7.318;2023-07-24T10:08:20;13;13;
47810;PMS5003;33575;52.600;7.318;2023-07-24T10:10:50;21;20;
47810;PMS5003;33575;52.600;7.318;2023-07-24T10:13:21;16;14;
47810;PMS5003;33575;52.600;7.318;2023-07-24T10:15:51;10;10;
47810;PMS5003;33575;52.600;7.318;2023-07-24T10:18:25;12;12;
47810;PMS5003;33575;52.600;7.318;2023-07-24T10:23:23;13;11;
47810;PMS5003;33575;52.600;7.318;2023-07-24T10:25:54;29;28;
47810;PMS5003;33575;52.600;7.318;2023-07-24T10:30:54;12;10;
47810;PMS5003;33575;52.600;7.318;2023-07-24T10:33:24;11;9;
47810;PMS5003;33575;52.600;7.318;2023-07-24T10:36:02;12;11;
47810;PMS5003;33575;52.600;7.318;2023-07-24T10:41:00;54;54;
47810;PMS5003;33575;52.600;7.318;2023-07-24T10:43:26;22;22;
47810;PMS5003;33575;52.600;7.318;2023-07-24T10:45:57;45;44;
47810;PMS5003;33575;52.600;7.318;2023-07-24T10:48:27;15;14;
47810;PMS5003;33575;52.600;7.318;2023-07-24T10:50:57;14;14;
47810;PMS5003;33575;52.600;7.318;2023-07-24T10:53:27;16;16;
47810;PMS5003;33575;52.600;7.318;2023-07-24T10:55:59;13;11;
47810;PMS5003;33575;52.600;7.318;2023-07-24T10:58:29;13;12;
47810;PMS5003;33575;52.600;7.318;2023-07-24T11:00:59;14;14;
47810;PMS5003;33575;52.600;7.318;2023-07-24T11:03:30;15;15;
47810;PMS5003;33575;52.600;7.318;2023-07-24T11:06:00;11;10;
47810;PMS5003;33575;52.600;7.318;2023-07-24T11:08:30;12;12;
47810;PMS5003;33575;52.600;7.318;2023-07-24T11:11:00;8;8;
47810;PMS5003;33575;52.600;7.318;2023-07-24T11:13:30;14;14;
47810;PMS5003;33575;52.600;7.318;2023-07-24T11:16:03;24;22;
47810;PMS5003;33575;52.600;7.318;2023-07-24T11:21:02;17;16;
47810;PMS5003;33575;52.600;7.318;2023-07-24T11:23:32;34;33;
47810;PMS5003;33575;52.600;7.318;2023-07-24T11:26:03;14;13;
47810;PMS5003;33575;52.600;7.318;2023-07-24T11:31:03;16;16;
47810;PMS5003;33575;52.600;7.318;2023-07-24T11:33:33;13;13;
47810;PMS5003;33575;52.600;7.318;2023-07-24T11:36:03;16;15;
47810;PMS5003;33575;52.600;7.318;2023-07-24T11:38:33;15;14;
47810;PMS5003;33575;52.600;7.318;2023-07-24T11:41:04;11;10;
47810;PMS5003;33575;52.600;7.318;2023-07-24T11:43:34;10;10;
47810;PMS5003;33575;52.600;7.318;2023-07-24T11:46:04;12;11;
47810;PMS5003;33575;52.600;7.318;2023-07-24T11:48:34;11;11;
47810;PMS5003;33575;52.600;7.318;2023-07-24T11:51:04;13;13;
47810;PMS5003;33575;52.600;7.318;2023-07-24T11:53:35;12;11;
47810;PMS5003;33575;52.600;7.318;2023-07-24T11:56:13;12;10;
47810;PMS5003;33575;52.600;7.318;2023-07-24T11:58:35;12;12;
47810;PMS5003;33575;52.600;7.318;2023-07-24T12:01:06;13;11;
47810;PMS5003;33575;52.600;7.318;2023-07-24T12:03:36;33;32;
47810;PMS5003;33575;52.600;7.318;2023-07-24T12:08:37;12;12;
47810;PMS5003;33575;52.600;7.318;2023-07-24T12:13:37;15;14;
47810;PMS5003;33575;52.600;7.318;2023-07-24T12:16:07;14;12;
47810;PMS5003;33575;52.600;7.318;2023-07-24T12:18:38;10;10;
47810;PMS5003;33575;52.600;7.318;2023-07-24T12:21:08;15;13;
47810;PMS5003;33575;52.600;7.318;2023-07-24T12:23:39;13;11;
47810;PMS5003;33575;52.600;7.318;2023-07-24T12:26:09;13;11;
47810;PMS5003;33575;52.600;7.318;2023-07-24T12:28:39;12;11;
47810;PMS5003;33575;52.600;7.318;2023-07-24T12:31:10;11;11;
47810;PMS5003;33575;52.600;7.318;2023-07-24T12:33:40;12;12;
47810;PMS5003;33575;52.600;7.318;2023-07-24T12:36:11;13;13;
47810;PMS5003;33575;52.600;7.318;2023-07-24T12:38:41;12;11;
47810;PMS5003;33575;52.600;7.318;2023-07-24T12:41:11;10;10;
47810;PMS5003;33575;52.600;7.318;2023-07-24T12:43:42;14;13;
47810;PMS5003;33575;52.600;7.318;2023-07-24T12:46:12;12;12;
47810;PMS5003;33575;52.600;7.318;2023-07-24T12:48:42;14;14;
47810;PMS5003;33575;52.600;7.318;2023-07-24T12:51:13;15;15;
47810;PMS5003;33575;52.600;7.318;2023-07-24T12:53:49;11;11;
47810;PMS5003;33575;52.600;7.318;2023-07-24T12:56:14;12;12;
47810;PMS5003;33575;52.600;7.318;2023-07-24T12:58:44;13;13;
47810;PMS5003;33575;52.600;7.318;2023-07-24T13:01:15;11;11;
47810;PMS5003;33575;52.600;7.318;2023-07-24T13:03:45;14;12;
47810;PMS5003;33575;52.600;7.318;2023-07-24T13:06:15;12;11;
47810;PMS5003;33575;52.600;7.318;2023-07-24T13:08:45;11;10;
47810;PMS5003;33575;52.600;7.318;2023-07-24T13:11:16;15;15;
47810;PMS5003;33575;52.600;7.318;2023-07-24T13:13:46;14;13;
47810;PMS5003;33575;52.600;7.318;2023-07-24T13:16:16;15;14;
47810;PMS5003;33575;52.600;7.318;2023-07-24T13:18:47;17;16;
47810;PMS5003;33575;52.600;7.318;2023-07-24T13:21:17;12;11;
47810;PMS5003;33575;52.600;7.318;2023-07-24T13:23:48;11;11;
47810;PMS5003;33575;52.600;7.318;2023-07-24T13:26:19;14;13;
47810;PMS5003;33575;52.600;7.318;2023-07-24T13:28:49;13;12;
47810;PMS5003;33575;52.600;7.318;2023-07-24T13:31:20;15;14;
47810;PMS5003;33575;52.600;7.318;2023-07-24T13:33:50;13;13;
47810;PMS5003;33575;52.600;7.318;2023-07-24T13:36:20;13;13;
47810;PMS5003;33575;52.600;7.318;2023-07-24T13:38:50;14;13;
47810;PMS5003;33575;52.600;7.318;2023-07-24T13:41:20;16;14;
47810;PMS5003;33575;52.600;7.318;2023-07-24T13:43:51;15;14;
47810;PMS5003;33575;52.600;7.318;2023-07-24T13:46:22;15;14;
47810;PMS5003;33575;52.600;7.318;2023-07-24T13:48:52;16;15;
47810;PMS5003;33575;52.600;7.318;2023-07-24T13:51:22;15;14;
47810;PMS5003;33575;52.600;7.318;2023-07-24T13:53:52;12;12;
47810;PMS5003;33575;52.600;7.318;2023-07-24T13:56:22;14;13;
47810;PMS5003;33575;52.600;7.318;2023-07-24T13:58:53;19;19;
47810;PMS5003;33575;52.600;7.318;2023-07-24T14:01:23;15;14;
47810;PMS5003;33575;52.600;7.318;2023-07-24T14:03:54;13;13;
47810;PMS5003;33575;52.600;7.318;2023-07-24T14:06:24;14;14;
47810;PMS5003;33575;52.600;7.318;2023-07-24T14:08:54;16;14;
47810;PMS5003;33575;52.600;7.318;2023-07-24T14:11:24;14;14;
47810;PMS5003;33575;52.600;7.318;2023-07-24T14:13:55;18;16;
47810;PMS5003;33575;52.600;7.318;2023-07-24T14:16:26;13;13;
47810;PMS5003;33575;52.600;7.318;2023-07-24T14:18:57;14;14;
47810;PMS5003;33575;52.600;7.318;2023-07-24T14:21:27;14;13;
47810;PMS5003;33575;52.600;7.318;2023-07-24T14:23:57;16;16;
47810;PMS5003;33575;52.600;7.318;2023-07-24T14:26:27;12;12;
47810;PMS5003;33575;52.600;7.318;2023-07-24T14:28:58;19;16;
47810;PMS5003;33575;52.600;7.318;2023-07-24T14:31:28;16;14;
47810;PMS5003;33575;52.600;7.318;2023-07-24T14:33:59;15;15;
47810;PMS5003;33575;52.600;7.318;2023-07-24T14:36:29;16;16;
47810;PMS5003;33575;52.600;7.318;2023-07-24T14:39:00;16;16;
47810;PMS5003;33575;52.600;7.318;2023-07-24T14:41:31;16;15;
47810;PMS5003;33575;52.600;7.318;2023-07-24T14:44:00;17;17;
47810;PMS5003;33575;52.600;7.318;2023-07-24T14:46:31;15;15;
47810;PMS5003;33575;52.600;7.318;2023-07-24T14:49:01;17;17;
47810;PMS5003;33575;52.600;7.318;2023-07-24T14:51:32;19;17;
47810;PMS5003;33575;52.600;7.318;2023-07-24T14:54:02;16;16;
47810;PMS5003;33575;52.600;7.318;2023-07-24T14:56:38;12;11;
47810;PMS5003;33575;52.600;7.318;2023-07-24T14:59:03;7;6;
47810;PMS5003;33575;52.600;7.318;2023-07-24T15:01:34;6;6;
47810;PMS5003;33575;52.600;7.318;2023-07-24T15:04:03;6;6;
47810;PMS5003;33575;52.600;7.318;2023-07-24T15:06:33;6;6;
47810;PMS5003;33575;52.600;7.318;2023-07-24T15:09:03;23;22;
47810;PMS5003;33575;52.600;7.318;2023-07-24T15:11:34;6;5;
47810;PMS5003;33575;52.600;7.318;2023-07-24T15:14:04;9;7;
47810;PMS5003;33575;52.600;7.318;2023-07-24T15:16:34;9;7;
47810;PMS5003;33575;52.600;7.318;2023-07-24T15:19:04;8;7;
47810;PMS5003;33575;52.600;7.318;2023-07-24T15:21:35;7;7;
47810;PMS5003;33575;52.600;7.318;2023-07-24T15:24:05;8;8;
47810;PMS5003;33575;52.600;7.318;2023-07-24T15:26:35;7;7;
47810;PMS5003;33575;52.600;7.318;2023-07-24T15:29:06;6;6;
47810;PMS5003;33575;52.600;7.318;2023-07-24T15:31:36;7;7;
47810;PMS5003;33575;52.600;7.318;2023-07-24T15:34:06;5;5;
47810;PMS5003;33575;52.600;7.318;2023-07-24T15:36:36;7;7;
47810;PMS5003;33575;52.600;7.318;2023-07-24T15:39:07;5;5;
47810;PMS5003;33575;52.600;7.318;2023-07-24T15:41:37;7;6;
47810;PMS5003;33575;52.600;7.318;2023-07-24T15:44:07;8;7;
47810;PMS5003;33575;52.600;7.318;2023-07-24T15:46:38;5;5;
47810;PMS5003;33575;52.600;7.318;2023-07-24T15:49:08;9;8;
47810;PMS5003;33575;52.600;7.318;2023-07-24T15:51:42;14;14;
47810;PMS5003;33575;52.600;7.318;2023-07-24T15:54:09;9;8;
47810;PMS5003;33575;52.600;7.318;2023-07-24T15:56:39;10;8;
47810;PMS5003;33575;52.600;7.318;2023-07-24T15:59:09;9;8;
47810;PMS5003;33575;52.600;7.318;2023-07-24T16:01:40;9;8;
47810;PMS5003;33575;52.600;7.318;2023-07-24T16:04:11;11;10;
47810;PMS5003;33575;52.600;7.318;2023-07-24T16:06:41;10;9;
47810;PMS5003;33575;52.600;7.318;2023-07-24T16:09:11;10;9;
47810;PMS5003;33575;52.600;7.318;2023-07-24T16:11:41;9;9;
47810;PMS5003;33575;52.600;7.318;2023-07-24T16:14:12;9;9;
47810;PMS5003;33575;52.600;7.318;2023-07-24T16:16:42;11;11;
47810;PMS5003;33575;52.600;7.318;2023-07-24T16:19:13;9;9;
47810;PMS5003;33575;52.600;7.318;2023-07-24T16:21:43;12;12;
47810;PMS5003;33575;52.600;7.318;2023-07-24T16:24:13;14;13;
47810;PMS5003;33575;52.600;7.318;2023-07-24T16:26:43;12;12;
47810;PMS5003;33575;52.600;7.318;2023-07-24T16:29:13;11;11;
47810;PMS5003;33575;52.600;7.318;2023-07-24T16:31:44;16;13;
47810;PMS5003;33575;52.600;7.318;2023-07-24T16:34:14;14;14;
47810;PMS5003;33575;52.600;7.318;2023-07-24T16:36:44;14;14;
47810;PMS5003;33575;52.600;7.318;2023-07-24T16:39:14;11;11;
47810;PMS5003;33575;52.600;7.318;2023-07-24T16:41:44;16;15;
47810;PMS5003;33575;52.600;7.318;2023-07-24T16:44:16;12;12;
47810;PMS5003;33575;52.600;7.318;2023-07-24T16:46:46;12;12;
47810;PMS5003;33575;52.600;7.318;2023-07-24T16:49:16;15;13;
47810;PMS5003;33575;52.600;7.318;2023-07-24T16:51:46;13;13;
47810;PMS5003;33575;52.600;7.318;2023-07-24T16:54:17;12;12;
47810;PMS5003;33575;52.600;7.318;2023-07-24T16:56:47;12;11;
47810;PMS5003;33575;52.600;7.318;2023-07-24T16:59:17;12;12;
47810;PMS5003;33575;52.600;7.318;2023-07-24T17:01:48;8;8;
47810;PMS5003;33575;52.600;7.318;2023-07-24T17:04:18;6;6;
47810;PMS5003;33575;52.600;7.318;2023-07-24T17:06:48;5;5;
47810;PMS5003;33575;52.600;7.318;2023-07-24T17:09:18;5;5;
47810;PMS5003;33575;52.600;7.318;2023-07-24T17:11:49;7;7;
47810;PMS5003;33575;52.600;7.318;2023-07-24T17:14:19;4;3;
47810;PMS5003;33575;52.600;7.318;2023-07-24T17:16:49;3;3;
47810;PMS5003;33575;52.600;7.318;2023-07-24T17:19:19;5;5;
47810;PMS5003;33575;52.600;7.318;2023-07-24T17:21:50;6;6;